Time;durP1;ratioP1;P1;durP2;ratioP2;P2;SDS_P1;SDS_P2;PMS_P1;PMS_P2;Temp;Humidity;BMP_temperature;BMP_pressure;BME280_temperature;BME280_humidity;BME280_pressure;Samples;Min_cycle;Max_cycle;Signal;HPM_P1;HPM_P2
2022/08/16 00:02:02;;;;;;;7.65;6.47;;;18.50;99.90;;;;;;5050489;28;20174;-50
2022/08/16 00:04:28;;;;;;;10.90;6.75;;;18.40;99.90;;;;;;5050526;28;20231;-49
2022/08/16 00:06:54;;;;;;;8.50;6.70;;;18.40;99.90;;;;;;5050554;28;20180;-49
2022/08/16 00:09:20;;;;;;;7.90;6.95;;;18.30;99.90;;;;;;5050494;28;20201;-49
2022/08/16 00:11:48;;;;;;;9.65;7.00;;;18.10;99.90;;;;;;5050528;28;20571;-49
2022/08/16 00:14:19;;;;;;;8.07;6.50;;;18.10;99.90;;;;;;5051535;28;20204;-49
2022/08/16 00:16:46;;;;;;;7.95;7.03;;;18.10;99.90;;;;;;5054224;28;20185;-49
2022/08/16 00:19:13;;;;;;;10.88;7.43;;;18.20;99.90;;;;;;5054218;28;20260;-49
2022/08/16 00:21:39;;;;;;;8.52;7.10;;;18.30;99.90;;;;;;5054181;28;20215;-49
2022/08/16 00:24:05;;;;;;;10.48;7.13;;;18.30;99.90;;;;;;5053962;28;20197;-49
2022/08/16 00:26:31;;;;;;;10.35;7.38;;;18.40;99.90;;;;;;5054165;28;20609;-50
2022/08/16 00:28:57;;;;;;;9.50;7.22;;;18.40;99.90;;;;;;5053830;28;20201;-49
2022/08/16 00:31:22;;;;;;;9.80;7.25;;;18.40;99.90;;;;;;5053994;28;20177;-50
2022/08/16 00:33:48;;;;;;;7.93;7.13;;;18.40;99.90;;;;;;5053987;28;20652;-51
2022/08/16 00:36:14;;;;;;;11.00;7.28;;;18.40;99.90;;;;;;5053915;28;20219;-50
2022/08/16 00:38:39;;;;;;;15.65;8.25;;;18.30;99.90;;;;;;5053769;28;20213;-49
2022/08/16 00:41:06;;;;;;;8.88;7.85;;;18.40;99.90;;;;;;5053884;28;20169;-50
2022/08/16 00:43:34;;;;;;;11.88;9.00;;;18.40;99.90;;;;;;5053751;28;20175;-50
2022/08/16 00:46:10;;;;;;;10.15;8.18;;;18.40;99.90;;;;;;5053825;28;20208;-49
2022/08/16 00:48:36;;;;;;;10.90;8.57;;;18.40;99.90;;;;;;5053518;28;20173;-50
2022/08/16 00:51:03;;;;;;;10.70;7.47;;;18.50;99.90;;;;;;5053684;28;20181;-49
2022/08/16 00:53:29;;;;;;;11.30;7.80;;;18.50;99.90;;;;;;5052284;28;20534;-49
2022/08/16 00:55:59;;;;;;;9.10;7.93;;;18.50;99.90;;;;;;5053598;28;20172;-49
2022/08/16 00:58:29;;;;;;;9.20;7.75;;;18.60;99.90;;;;;;5053734;28;20220;-49
2022/08/16 01:00:55;;;;;;;13.23;7.53;;;18.70;99.90;;;;;;5053516;28;20177;-49
2022/08/16 01:03:25;;;;;;;8.77;7.63;;;18.70;99.90;;;;;;5053525;28;20177;-49
2022/08/16 01:05:51;;;;;;;9.38;8.02;;;18.70;99.90;;;;;;5053317;28;20197;-50
2022/08/16 01:08:20;;;;;;;9.38;8.23;;;18.60;99.90;;;;;;5053251;28;20686;-50
2022/08/16 01:10:47;;;;;;;10.43;7.88;;;18.60;99.90;;;;;;5053206;28;20221;-50
2022/08/16 01:13:21;;;;;;;9.07;7.20;;;18.60;99.90;;;;;;5053247;28;20243;-50
2022/08/16 01:15:51;;;;;;;9.50;8.50;;;18.60;99.90;;;;;;5053155;28;20168;-50
2022/08/16 01:18:20;;;;;;;12.13;7.82;;;18.60;99.90;;;;;;5053088;28;20193;-50
2022/08/16 01:20:59;;;;;;;11.05;8.15;;;18.60;99.90;;;;;;5052029;28;20172;-50
2022/08/16 01:24:02;;;;;;;12.52;8.48;;;18.50;99.90;;;;;;5053128;28;20165;-50
2022/08/16 01:26:30;;;;;;;9.60;8.32;;;18.50;99.90;;;;;;5052719;28;20696;-49
2022/08/16 01:29:01;;;;;;;10.13;7.95;;;18.40;99.90;;;;;;5052808;28;20209;-50
2022/08/16 01:31:27;;;;;;;14.45;8.65;;;18.50;99.90;;;;;;5052928;28;20181;-50
2022/08/16 01:33:53;;;;;;;13.18;8.85;;;18.40;99.90;;;;;;5052790;28;20162;-50
2022/08/16 01:36:20;;;;;;;11.50;9.70;;;18.50;99.90;;;;;;5052896;28;20671;-50
2022/08/16 01:38:48;;;;;;;11.80;9.27;;;18.40;99.90;;;;;;5052966;28;20300;-50
2022/08/16 01:41:17;;;;;;;17.08;9.50;;;18.50;99.90;;;;;;5052577;28;20683;-50
2022/08/16 01:43:44;;;;;;;13.23;9.48;;;18.40;99.90;;;;;;5052698;28;20640;-51
2022/08/16 01:46:22;;;;;;;11.30;9.77;;;18.40;99.90;;;;;;5052747;28;20205;-50
2022/08/16 01:48:52;;;;;;;10.52;9.35;;;18.40;99.90;;;;;;5052523;28;20188;-51
2022/08/16 01:51:20;;;;;;;10.85;9.15;;;18.40;99.90;;;;;;5052416;28;20173;-50
2022/08/16 01:53:45;;;;;;;10.88;9.77;;;18.30;99.90;;;;;;5052296;28;20242;-50
2022/08/16 01:56:11;;;;;;;11.00;9.65;;;18.40;99.90;;;;;;5052556;28;20735;-50
2022/08/16 01:58:37;;;;;;;13.52;10.35;;;18.40;99.90;;;;;;5052360;28;20222;-54
2022/08/16 02:01:06;;;;;;;13.95;10.27;;;18.40;99.90;;;;;;5052291;28;20671;-54
2022/08/16 02:03:31;;;;;;;12.80;10.15;;;18.30;99.90;;;;;;5052320;28;20287;-53
2022/08/16 02:05:57;;;;;;;13.15;10.05;;;18.30;99.90;;;;;;5052226;28;20552;-53
2022/08/16 02:08:25;;;;;;;13.93;10.30;;;18.40;99.90;;;;;;5052229;28;20267;-53
2022/08/16 02:10:51;;;;;;;11.77;9.95;;;18.40;99.90;;;;;;5051800;28;20706;-51
2022/08/16 02:13:17;;;;;;;13.13;9.88;;;18.40;99.90;;;;;;5052118;28;20535;-52
2022/08/16 02:15:43;;;;;;;17.95;10.10;;;18.40;99.90;;;;;;5052162;28;20161;-52
2022/08/16 02:18:09;;;;;;;13.07;9.77;;;18.50;99.90;;;;;;5052092;28;20517;-53
2022/08/16 02:20:37;;;;;;;13.55;10.57;;;18.50;99.90;;;;;;5051788;28;20260;-53
2022/08/16 02:23:04;;;;;;;13.68;10.43;;;18.40;99.90;;;;;;5051779;28;20593;-52
2022/08/16 02:25:30;;;;;;;19.05;10.65;;;18.30;99.90;;;;;;5051828;28;20165;-54
2022/08/16 02:27:57;;;;;;;11.65;10.45;;;18.20;99.90;;;;;;5051773;28;20192;-53
2022/08/16 02:30:27;;;;;;;15.38;9.98;;;18.20;99.90;;;;;;5050511;28;20221;-53
2022/08/16 02:32:52;;;;;;;11.82;9.90;;;18.30;99.90;;;;;;5051614;28;20180;-52
2022/08/16 02:35:19;;;;;;;15.55;11.00;;;18.30;99.90;;;;;;5051471;28;20169;-52
2022/08/16 02:37:45;;;;;;;13.30;10.25;;;18.20;99.90;;;;;;5051131;28;20219;-52
2022/08/16 02:40:15;;;;;;;12.05;10.32;;;18.20;99.90;;;;;;5051318;28;20591;-52
2022/08/16 02:42:41;;;;;;;13.48;10.80;;;18.20;99.90;;;;;;5051610;28;20208;-52
2022/08/16 02:45:06;;;;;;;14.35;11.35;;;18.20;99.90;;;;;;5051590;28;20622;-52
2022/08/16 02:47:32;;;;;;;13.27;10.25;;;18.30;99.90;;;;;;5051369;28;20181;-52
2022/08/16 02:49:58;;;;;;;15.65;11.50;;;18.30;99.90;;;;;;5051348;28;20717;-53
2022/08/16 02:52:23;;;;;;;13.98;11.90;;;18.40;99.90;;;;;;5051530;28;20659;-52
2022/08/16 02:54:49;;;;;;;16.40;10.85;;;18.40;99.90;;;;;;5051331;28;20239;-52
2022/08/16 02:57:15;;;;;;;11.40;10.13;;;18.50;99.90;;;;;;5051405;28;20168;-52
2022/08/16 02:59:41;;;;;;;13.18;10.70;;;18.50;99.90;;;;;;5051156;28;20675;-52
2022/08/16 03:02:09;;;;;;;12.98;11.40;;;18.50;99.90;;;;;;5051287;28;20208;-52
2022/08/16 03:04:35;;;;;;;16.35;11.68;;;18.50;99.90;;;;;;5051195;28;20205;-52
2022/08/16 03:07:01;;;;;;;17.67;11.00;;;18.60;99.90;;;;;;5051113;28;20195;-52
2022/08/16 03:09:27;;;;;;;13.05;10.13;;;18.60;99.90;;;;;;5051229;28;20216;-52
2022/08/16 03:11:53;;;;;;;16.80;10.98;;;18.60;99.90;;;;;;5051162;28;20542;-52
2022/08/16 03:14:18;;;;;;;13.93;11.15;;;18.60;99.90;;;;;;5051037;28;20656;-52
2022/08/16 03:16:44;;;;;;;13.20;11.30;;;18.60;99.90;;;;;;5050971;28;20582;-52
2022/08/16 03:19:09;;;;;;;16.30;14.18;;;18.70;99.90;;;;;;5050856;28;20207;-52
2022/08/16 03:21:36;;;;;;;15.75;12.45;;;18.70;99.90;;;;;;5050837;28;20211;-53
2022/08/16 03:24:02;;;;;;;15.07;11.98;;;18.80;99.90;;;;;;5050754;28;20660;-51
2022/08/16 03:26:28;;;;;;;14.48;11.32;;;18.80;99.90;;;;;;5050882;28;20177;-51
2022/08/16 03:28:54;;;;;;;14.82;11.75;;;18.80;99.90;;;;;;5050705;28;20204;-51
2022/08/16 03:31:20;;;;;;;15.15;11.55;;;18.90;99.90;;;;;;5050874;28;20169;-52
2022/08/16 03:33:45;;;;;;;15.52;12.43;;;18.90;99.90;;;;;;5050800;28;20169;-51
2022/08/16 03:36:11;;;;;;;18.85;12.68;;;18.90;99.90;;;;;;5050753;28;20227;-51
2022/08/16 03:38:37;;;;;;;21.30;13.00;;;18.90;99.90;;;;;;5050606;28;20714;-52
2022/08/16 03:41:05;;;;;;;14.80;12.07;;;18.90;99.90;;;;;;5050870;28;20173;-52
2022/08/16 03:43:30;;;;;;;14.27;12.57;;;18.90;99.90;;;;;;5050741;28;20628;-52
2022/08/16 03:45:56;;;;;;;14.82;11.90;;;18.90;99.90;;;;;;5050651;28;20185;-52
2022/08/16 03:48:25;;;;;;;16.48;12.23;;;18.90;99.90;;;;;;5051835;28;20177;-51
2022/08/16 03:50:52;;;;;;;16.38;11.68;;;18.80;99.90;;;;;;5054652;28;20216;-52
2022/08/16 03:53:17;;;;;;;16.15;12.85;;;18.80;99.90;;;;;;5054826;28;20169;-53
2022/08/16 03:55:43;;;;;;;15.98;12.00;;;18.70;99.90;;;;;;5054586;28;20195;-52
2022/08/16 03:58:08;;;;;;;17.73;13.75;;;18.70;99.90;;;;;;5054542;28;20165;-53
2022/08/16 04:00:35;;;;;;;13.40;12.00;;;18.60;99.90;;;;;;5054530;28;20203;-53
2022/08/16 04:03:06;;;;;;;18.70;13.65;;;18.70;99.90;;;;;;5054470;28;20261;-53
2022/08/16 04:05:34;;;;;;;15.32;13.23;;;18.70;99.90;;;;;;5054390;28;20173;-52
2022/08/16 04:08:00;;;;;;;14.55;11.32;;;18.70;99.90;;;;;;5054489;28;20249;-52
2022/08/16 04:10:26;;;;;;;16.38;12.05;;;18.70;99.90;;;;;;5054252;28;20208;-52
2022/08/16 04:12:52;;;;;;;17.75;11.13;;;18.80;99.90;;;;;;5054158;28;20172;-51
2022/08/16 04:15:18;;;;;;;20.05;11.68;;;18.80;99.90;;;;;;5054100;28;20640;-53
2022/08/16 04:17:43;;;;;;;13.68;11.18;;;18.80;99.90;;;;;;5054228;28;20568;-53
2022/08/16 04:20:12;;;;;;;14.05;11.75;;;18.80;99.90;;;;;;5054280;28;20303;-53
2022/08/16 04:22:38;;;;;;;16.00;11.93;;;18.80;99.90;;;;;;5054270;28;20183;-53
2022/08/16 04:25:05;;;;;;;13.98;12.35;;;18.80;99.90;;;;;;5054127;28;20260;-52
2022/08/16 04:27:31;;;;;;;15.60;11.80;;;18.80;99.90;;;;;;5054019;28;20208;-53
2022/08/16 04:29:57;;;;;;;15.77;12.88;;;18.80;99.90;;;;;;5053836;28;20217;-52
2022/08/16 04:32:23;;;;;;;14.48;12.85;;;18.90;99.90;;;;;;5053994;28;20275;-53
2022/08/16 04:34:49;;;;;;;15.02;13.15;;;18.90;99.90;;;;;;5053926;28;20177;-53
2022/08/16 04:37:15;;;;;;;17.63;13.25;;;18.80;99.90;;;;;;5053803;28;20172;-53
2022/08/16 04:39:41;;;;;;;17.05;12.45;;;18.70;99.90;;;;;;5053785;28;20208;-53
2022/08/16 04:42:06;;;;;;;17.52;13.50;;;18.70;99.90;;;;;;5053804;28;20187;-53
2022/08/16 04:44:32;;;;;;;18.52;14.48;;;18.70;99.90;;;;;;5053682;28;20177;-51
2022/08/16 04:46:58;;;;;;;16.88;13.23;;;18.70;99.90;;;;;;5053675;28;20161;-52
2022/08/16 04:49:24;;;;;;;17.83;13.48;;;18.60;99.90;;;;;;5053665;28;20201;-51
2022/08/16 04:51:50;;;;;;;16.25;13.43;;;18.60;99.90;;;;;;5053683;28;20193;-52
2022/08/16 04:54:16;;;;;;;19.42;14.23;;;18.50;99.90;;;;;;5053631;28;20178;-52
2022/08/16 04:56:42;;;;;;;16.92;14.48;;;18.50;99.90;;;;;;5053485;28;20221;-52
2022/08/16 04:59:08;;;;;;;21.00;15.15;;;18.40;99.90;;;;;;5053508;28;20204;-52
2022/08/16 05:01:34;;;;;;;19.58;15.45;;;18.50;99.90;;;;;;5052725;28;20176;-52
2022/08/16 05:04:00;;;;;;;21.67;16.00;;;18.50;99.90;;;;;;5053439;28;20165;-53
2022/08/16 05:06:26;;;;;;;18.42;15.20;;;18.50;99.90;;;;;;5053405;28;20169;-52
2022/08/16 05:08:51;;;;;;;18.13;16.20;;;18.50;99.90;;;;;;5053187;28;20260;-52
2022/08/16 05:11:17;;;;;;;19.98;16.40;;;18.50;99.90;;;;;;5053312;28;20560;-53
2022/08/16 05:13:46;;;;;;;19.80;16.05;;;18.50;99.90;;;;;;5053019;28;20181;-52
2022/08/16 05:16:16;;;;;;;25.40;17.40;;;18.60;99.90;;;;;;5053260;28;20173;-53
2022/08/16 05:18:42;;;;;;;23.13;16.75;;;18.60;99.90;;;;;;5053088;28;20655;-53
2022/08/16 05:21:08;;;;;;;19.90;16.52;;;18.60;99.90;;;;;;5053183;28;20314;-52
2022/08/16 05:23:34;;;;;;;20.30;16.85;;;18.70;99.90;;;;;;5053075;28;20165;-52
2022/08/16 05:25:59;;;;;;;19.75;15.82;;;18.70;99.90;;;;;;5052883;28;20331;-51
2022/08/16 05:28:26;;;;;;;24.05;16.08;;;18.70;99.90;;;;;;5052687;28;20181;-52
2022/08/16 05:30:52;;;;;;;20.25;15.85;;;18.70;99.90;;;;;;5052839;28;20209;-52
2022/08/16 05:33:20;;;;;;;27.20;16.02;;;18.70;99.90;;;;;;5052963;28;20200;-53
2022/08/16 05:35:47;;;;;;;18.80;15.77;;;18.80;99.90;;;;;;5052619;28;20185;-51
2022/08/16 05:38:13;;;;;;;24.42;18.63;;;18.80;99.90;;;;;;5052477;28;20706;-51
2022/08/16 05:40:39;;;;;;;30.08;17.52;;;18.80;99.90;;;;;;5051651;28;20256;-52
2022/08/16 05:43:05;;;;;;;22.08;16.73;;;18.90;99.90;;;;;;5032650;28;20244;-51
2022/08/16 05:45:31;;;;;;;24.70;18.50;;;18.90;99.90;;;;;;5032612;28;20636;-51
2022/08/16 05:47:56;;;;;;;20.90;18.50;;;18.90;99.90;;;;;;5038685;28;20186;-52
2022/08/16 05:50:22;;;;;;;23.27;18.90;;;18.90;99.90;;;;;;5032495;28;20221;-52
2022/08/16 05:52:48;;;;;;;23.58;19.85;;;18.90;99.90;;;;;;5032501;28;20215;-52
2022/08/16 05:55:14;;;;;;;25.10;19.98;;;18.90;99.90;;;;;;5032454;28;20178;-51
2022/08/16 05:57:40;;;;;;;22.10;18.85;;;19.00;99.90;;;;;;5032377;28;20634;-52
2022/08/16 06:00:11;;;;;;;23.23;19.33;;;19.00;99.90;;;;;;5032448;28;20188;-52
2022/08/16 06:02:37;;;;;;;24.83;19.58;;;19.00;99.90;;;;;;5032295;28;20170;-51
2022/08/16 06:05:04;;;;;;;29.73;20.95;;;19.00;99.90;;;;;;5032446;28;20178;-52
2022/08/16 06:07:30;;;;;;;29.88;22.15;;;18.90;99.90;;;;;;5032251;28;20189;-52
2022/08/16 06:09:58;;;;;;;29.13;22.90;;;18.90;99.90;;;;;;5032090;28;20707;-52
2022/08/16 06:12:24;;;;;;;28.20;22.30;;;18.90;99.90;;;;;;5031188;28;20166;-52
2022/08/16 06:14:49;;;;;;;27.02;22.55;;;18.80;99.90;;;;;;5032036;28;20527;-52
2022/08/16 06:17:15;;;;;;;30.85;22.33;;;18.80;99.90;;;;;;5032125;28;20224;-52
2022/08/16 06:19:42;;;;;;;24.52;21.35;;;18.90;99.90;;;;;;5031961;28;20170;-52
2022/08/16 06:22:08;;;;;;;24.55;19.73;;;18.90;99.90;;;;;;5032048;28;20636;-52
2022/08/16 06:24:34;;;;;;;28.58;21.60;;;19.00;99.90;;;;;;5031928;28;20178;-52
2022/08/16 06:27:00;;;;;;;27.75;21.58;;;18.90;99.90;;;;;;5031703;28;20180;-52
2022/08/16 06:29:26;;;;;;;26.98;23.13;;;19.00;99.90;;;;;;5042390;28;20205;-52
2022/08/16 06:31:52;;;;;;;29.00;23.80;;;18.90;99.90;;;;;;5051683;28;20173;-54
2022/08/16 06:34:18;;;;;;;29.50;22.20;;;19.00;99.90;;;;;;5051475;28;20189;-53
2022/08/16 06:36:43;;;;;;;34.47;25.42;;;18.90;99.90;;;;;;5051651;28;20162;-52
2022/08/16 06:39:09;;;;;;;31.70;24.83;;;19.00;99.90;;;;;;5051336;28;20221;-53
2022/08/16 06:41:35;;;;;;;33.08;23.75;;;19.10;99.90;;;;;;5051466;28;20173;-54
2022/08/16 06:44:01;;;;;;;32.35;24.95;;;19.20;99.90;;;;;;5051362;28;20252;-54
2022/08/16 06:46:35;;;;;;;32.00;24.33;;;19.20;99.90;;;;;;5051294;28;20240;-54
2022/08/16 06:49:02;;;;;;;29.77;23.98;;;19.30;99.90;;;;;;5051300;28;20200;-53
2022/08/16 06:51:28;;;;;;;32.17;24.45;;;19.30;99.90;;;;;;5051432;28;20252;-52
2022/08/16 06:53:54;;;;;;;35.40;24.55;;;19.30;99.90;;;;;;5051202;28;20231;-52
2022/08/16 06:56:19;;;;;;;30.42;24.85;;;19.40;99.90;;;;;;5051179;28;20717;-52
2022/08/16 06:58:45;;;;;;;31.63;24.67;;;19.40;99.90;;;;;;5051180;28;20721;-52
2022/08/16 07:01:11;;;;;;;31.15;25.55;;;19.50;99.90;;;;;;5051162;28;20632;-54
2022/08/16 07:03:37;;;;;;;33.63;26.33;;;19.50;99.90;;;;;;5047333;28;20240;-55
2022/08/16 07:06:03;;;;;;;33.90;24.77;;;19.50;99.90;;;;;;5044741;28;20692;-49
2022/08/16 07:08:29;;;;;;;30.17;24.17;;;19.50;99.90;;;;;;5041055;28;20258;-49
2022/08/16 07:10:57;;;;;;;28.45;23.08;;;19.50;99.90;;;;;;5050606;28;20684;-49
2022/08/16 07:13:23;;;;;;;26.20;23.27;;;19.50;99.90;;;;;;5050760;28;20674;-50
2022/08/16 07:15:50;;;;;;;31.05;24.05;;;19.60;99.90;;;;;;5050455;28;20192;-50
2022/08/16 07:18:19;;;;;;;27.45;24.13;;;19.60;99.90;;;;;;5050932;28;20169;-48
2022/08/16 07:20:46;;;;;;;33.22;24.95;;;19.60;99.90;;;;;;5050737;28;20707;-49
2022/08/16 07:23:12;;;;;;;31.13;24.05;;;19.60;99.90;;;;;;5050669;28;20177;-51
2022/08/16 07:25:38;;;;;;;31.33;22.48;;;19.60;99.90;;;;;;5049583;28;20173;-47
2022/08/16 07:28:04;;;;;;;31.85;18.00;;;19.70;99.90;;;;;;5050735;28;20700;-53
2022/08/16 07:30:30;;;;;;;25.30;17.02;;;19.70;99.90;;;;;;5049101;28;20705;-49
2022/08/16 07:32:56;;;;;;;23.70;13.95;;;19.80;99.90;;;;;;5050706;28;20207;-52
2022/08/16 07:35:22;;;;;;;24.85;12.18;;;19.80;99.90;;;;;;5050445;28;20640;-53
2022/08/16 07:37:48;;;;;;;18.02;10.55;;;19.90;99.90;;;;;;5050551;28;20164;-53
2022/08/16 07:40:15;;;;;;;20.60;10.75;;;19.90;99.90;;;;;;5049563;28;20216;-53
2022/08/16 07:42:40;;;;;;;19.13;10.18;;;20.00;99.90;;;;;;5050542;28;20176;-51
2022/08/16 07:45:07;;;;;;;15.45;11.35;;;20.00;99.90;;;;;;5050759;28;20172;-49
2022/08/16 07:47:33;;;;;;;30.88;12.50;;;20.10;99.90;;;;;;5050503;28;20264;-53
2022/08/16 07:50:00;;;;;;;21.92;14.10;;;20.00;99.90;;;;;;5050886;28;20303;-49
2022/08/16 07:52:26;;;;;;;17.80;13.40;;;20.00;99.90;;;;;;5061651;28;20173;-49
2022/08/16 07:54:52;;;;;;;16.55;14.25;;;20.10;99.90;;;;;;5050513;28;20196;-50
2022/08/16 07:57:18;;;;;;;23.30;15.35;;;20.10;99.90;;;;;;5061359;28;20214;-51
2022/08/16 07:59:44;;;;;;;22.60;15.00;;;20.10;99.90;;;;;;5049774;28;20674;-50
2022/08/16 08:02:13;;;;;;;25.10;14.65;;;20.10;99.90;;;;;;5050467;28;20715;-50
2022/08/16 08:04:40;;;;;;;25.02;16.02;;;20.20;99.90;;;;;;5050378;28;20167;-50
2022/08/16 08:07:05;;;;;;;19.95;15.35;;;20.20;99.90;;;;;;5050374;28;20180;-50
2022/08/16 08:09:31;;;;;;;20.27;15.38;;;20.40;99.90;;;;;;5050297;28;20201;-51
2022/08/16 08:11:57;;;;;;;25.65;15.55;;;20.50;99.90;;;;;;5050499;28;20205;-51
2022/08/16 08:14:23;;;;;;;22.73;15.77;;;20.60;99.90;;;;;;5049980;28;20616;-51
2022/08/16 08:16:49;;;;;;;27.13;15.73;;;20.80;99.90;;;;;;5050275;28;20208;-51
2022/08/16 08:19:15;;;;;;;24.67;16.42;;;20.90;99.90;;;;;;5049926;28;20201;-52
2022/08/16 08:21:42;;;;;;;31.05;16.77;;;21.10;99.90;;;;;;5048925;28;20170;-53
2022/08/16 08:24:09;;;;;;;31.55;17.33;;;21.20;99.90;;;;;;5049959;28;20628;-52
2022/08/16 08:26:35;;;;;;;23.92;16.85;;;21.40;99.90;;;;;;5049850;28;20701;-53
2022/08/16 08:29:02;;;;;;;28.50;16.73;;;21.60;99.90;;;;;;5050023;28;20250;-52
2022/08/16 08:31:28;;;;;;;23.63;15.75;;;21.80;99.90;;;;;;5050157;28;20185;-52
2022/08/16 08:33:55;;;;;;;25.88;15.85;;;22.10;99.90;;;;;;5049719;28;20597;-52
2022/08/16 08:36:27;;;;;;;23.10;15.60;;;22.40;99.90;;;;;;5051352;28;20534;-52
2022/08/16 08:38:53;;;;;;;25.63;15.60;;;22.50;99.90;;;;;;5047464;28;20213;-52
2022/08/16 08:41:19;;;;;;;22.17;15.43;;;22.60;99.90;;;;;;5053671;28;20675;-52
2022/08/16 08:43:45;;;;;;;23.23;15.13;;;22.90;99.90;;;;;;5053593;28;20240;-52
2022/08/16 08:46:11;;;;;;;28.45;16.27;;;23.00;99.90;;;;;;5053731;28;20173;-52
2022/08/16 08:48:37;;;;;;;23.23;15.43;;;23.00;99.90;;;;;;5053452;28;20165;-52
2022/08/16 08:51:05;;;;;;;24.33;15.93;;;22.90;99.90;;;;;;5053851;28;20721;-52
2022/08/16 08:53:32;;;;;;;29.40;16.02;;;22.80;99.90;;;;;;5053542;28;20687;-52
2022/08/16 08:55:58;;;;;;;25.15;16.45;;;22.70;99.90;;;;;;5053526;28;20256;-52
2022/08/16 08:58:23;;;;;;;26.13;16.23;;;22.60;99.90;;;;;;5053118;28;20695;-53
2022/08/16 09:00:50;;;;;;;25.58;15.73;;;22.50;99.90;;;;;;5053460;28;20177;-52
2022/08/16 09:03:15;;;;;;;21.60;16.42;;;22.50;99.90;;;;;;5052667;28;20177;-52
2022/08/16 09:05:41;;;;;;;24.67;17.17;;;22.40;99.90;;;;;;5053050;28;20253;-52
2022/08/16 09:08:08;;;;;;;25.50;16.30;;;22.40;99.90;;;;;;5053364;28;20184;-53
2022/08/16 09:10:34;;;;;;;29.90;16.30;;;22.50;99.90;;;;;;5053200;28;20213;-52
2022/08/16 09:13:00;;;;;;;22.10;16.23;;;22.60;99.90;;;;;;5053180;28;20234;-52
2022/08/16 09:15:26;;;;;;;26.55;17.02;;;22.60;99.90;;;;;;5053079;28;20180;-53
2022/08/16 09:17:54;;;;;;;24.13;16.15;;;22.60;99.90;;;;;;5053126;28;20165;-53
2022/08/16 09:20:22;;;;;;;27.60;16.40;;;22.80;99.90;;;;;;5053130;28;20243;-52
2022/08/16 09:22:49;;;;;;;21.25;16.58;;;22.70;99.90;;;;;;5052941;28;20710;-52
2022/08/16 09:25:15;;;;;;;24.58;16.65;;;22.70;99.90;;;;;;5053086;28;20833;-53
2022/08/16 09:27:41;;;;;;;28.25;16.88;;;22.80;99.90;;;;;;5052927;28;20203;-53
2022/08/16 09:30:08;;;;;;;28.77;17.25;;;22.90;99.90;;;;;;5052772;28;20306;-52
2022/08/16 09:32:34;;;;;;;22.10;17.77;;;23.00;99.90;;;;;;5051442;28;20165;-52
2022/08/16 09:35:01;;;;;;;22.05;17.02;;;23.00;99.90;;;;;;5052523;28;20216;-52
2022/08/16 09:37:29;;;;;;;22.75;16.70;;;23.30;99.90;;;;;;5052683;28;20263;-52
2022/08/16 09:39:56;;;;;;;27.65;16.30;;;23.40;99.90;;;;;;5052658;28;20225;-53
2022/08/16 09:42:22;;;;;;;31.17;17.27;;;23.50;99.90;;;;;;5052623;28;20186;-52
2022/08/16 09:44:47;;;;;;;24.35;16.77;;;23.50;99.90;;;;;;5052612;28;20166;-53
2022/08/16 09:47:13;;;;;;;23.65;16.42;;;23.70;99.90;;;;;;5051112;28;20201;-52
2022/08/16 09:49:39;;;;;;;20.42;16.08;;;23.70;99.90;;;;;;5052462;28;20233;-52
2022/08/16 09:52:05;;;;;;;22.67;16.67;;;23.70;99.90;;;;;;5052518;28;20657;-53
2022/08/16 09:54:31;;;;;;;19.95;15.50;;;23.70;99.90;;;;;;5051195;28;20170;-53
2022/08/16 09:56:56;;;;;;;20.77;14.93;;;23.80;99.90;;;;;;5052455;28;20268;-52
2022/08/16 09:59:24;;;;;;;20.15;16.38;;;23.90;99.90;;;;;;5051201;28;20208;-53
2022/08/16 10:01:50;;;;;;;23.60;15.65;;;24.10;99.90;;;;;;5052200;28;20173;-52
2022/08/16 10:04:17;;;;;;;26.50;15.98;;;24.20;99.90;;;;;;5051741;28;20177;-53
2022/08/16 10:06:46;;;;;;;20.45;15.27;;;24.30;99.90;;;;;;5052140;28;20180;-52
2022/08/16 10:09:13;;;;;;;25.58;16.02;;;24.50;99.90;;;;;;5052040;28;20185;-53
2022/08/16 10:14:29;;;;;;;17.17;14.52;;;24.40;99.90;;;;;;5052127;28;20184;-52
2022/08/16 10:16:57;;;;;;;18.92;15.90;;;24.30;99.90;;;;;;5051243;28;20226;-52
2022/08/16 10:19:23;;;;;;;23.27;16.85;;;24.40;99.90;;;;;;5051962;28;20185;-53
2022/08/16 10:21:49;;;;;;;22.75;16.48;;;24.30;99.90;;;;;;5051952;28;20224;-52
2022/08/16 10:24:15;;;;;;;25.55;17.95;;;24.40;99.90;;;;;;5051411;28;20593;-53
2022/08/16 10:26:40;;;;;;;27.85;19.45;;;24.50;99.90;;;;;;5051413;28;20226;-53
2022/08/16 10:29:06;;;;;;;26.00;19.10;;;24.50;99.90;;;;;;5051623;28;20219;-51
2022/08/16 10:31:33;;;;;;;26.08;19.35;;;24.40;99.90;;;;;;5051527;28;20671;-52
2022/08/16 10:34:00;;;;;;;25.20;18.75;;;24.40;99.90;;;;;;5050988;28;20264;-52
2022/08/16 10:36:26;;;;;;;34.28;20.38;;;24.40;99.90;;;;;;5051381;28;20192;-51
2022/08/16 10:38:52;;;;;;;29.40;21.17;;;24.40;99.90;;;;;;5050765;28;20224;-51
2022/08/16 10:41:19;;;;;;;28.98;21.00;;;24.40;99.90;;;;;;5050793;28;20185;-51
2022/08/16 10:43:46;;;;;;;26.60;19.92;;;24.30;99.90;;;;;;5051084;28;20173;-50
2022/08/16 10:46:13;;;;;;;32.53;21.55;;;24.30;99.90;;;;;;5051562;28;20277;-51
2022/08/16 10:48:40;;;;;;;30.75;21.45;;;24.30;99.90;;;;;;5051119;28;20180;-51
2022/08/16 10:51:07;;;;;;;26.63;20.17;;;24.20;99.90;;;;;;5050802;28;20213;-51
2022/08/16 10:53:34;;;;;;;29.65;19.85;;;24.20;99.90;;;;;;5051308;28;20227;-51
2022/08/16 10:56:05;;;;;;;35.38;22.02;;;24.10;99.90;;;;;;5051546;28;20189;-51
2022/08/16 10:58:32;;;;;;;31.60;22.92;;;24.00;99.90;;;;;;5050726;28;20165;-51
2022/08/16 11:00:58;;;;;;;30.55;22.00;;;24.10;99.90;;;;;;5051108;28;20700;-50
2022/08/16 11:03:25;;;;;;;29.30;22.45;;;24.00;99.90;;;;;;5051165;28;20174;-51
2022/08/16 11:05:51;;;;;;;37.60;23.52;;;23.80;99.90;;;;;;5051193;28;20200;-50
2022/08/16 11:08:16;;;;;;;28.08;21.70;;;23.80;99.90;;;;;;5051008;28;20250;-51
2022/08/16 11:10:45;;;;;;;31.05;20.05;;;23.60;99.90;;;;;;5051154;28;20792;-51
2022/08/16 11:13:13;;;;;;;34.10;23.23;;;23.80;99.90;;;;;;5050997;28;20167;-51
2022/08/16 11:15:41;;;;;;;34.55;22.90;;;23.80;99.90;;;;;;5050973;28;20632;-51
2022/08/16 11:18:07;;;;;;;37.90;22.85;;;23.90;99.90;;;;;;5050931;28;20221;-51
2022/08/16 11:20:33;;;;;;;32.80;23.27;;;24.10;99.90;;;;;;5050817;28;20532;-51
2022/08/16 11:22:59;;;;;;;34.30;22.73;;;24.20;99.90;;;;;;5050919;28;20176;-51
2022/08/16 11:25:28;;;;;;;35.22;21.33;;;24.40;99.90;;;;;;5050952;28;20186;-52
2022/08/16 11:27:55;;;;;;;33.67;21.52;;;24.50;99.90;;;;;;5050666;28;20200;-52
2022/08/16 11:30:22;;;;;;;28.88;20.38;;;24.70;99.90;;;;;;5050771;28;20247;-51
2022/08/16 11:32:48;;;;;;;29.67;19.85;;;24.80;99.90;;;;;;5050707;28;20243;-51
2022/08/16 11:35:18;;;;;;;27.63;19.42;;;24.90;99.90;;;;;;5050844;28;20185;-52
2022/08/16 11:37:55;;;;;;;29.33;19.40;;;25.00;99.90;;;;;;5050723;28;20184;-56
2022/08/16 11:40:21;;;;;;;25.92;19.98;;;25.20;99.90;;;;;;5050791;28;20215;-51
2022/08/16 11:42:47;;;;;;;24.70;18.35;;;25.40;99.90;;;;;;5050503;28;20632;-51
2022/08/16 11:45:13;;;;;;;29.73;18.90;;;25.50;99.90;;;;;;5050720;28;20219;-51
2022/08/16 11:47:40;;;;;;;24.58;18.52;;;26.20;99.90;;;;;;5050551;28;20220;-51
2022/08/16 11:50:08;;;;;;;22.38;17.73;;;26.80;99.90;;;;;;5050557;28;20744;-52
2022/08/16 11:52:35;;;;;;;27.63;17.75;;;27.10;99.90;;;;;;5050772;28;20243;-52
2022/08/16 11:55:02;;;;;;;27.15;16.30;;;27.10;99.90;;;;;;5050593;28;20671;-52
2022/08/16 11:57:28;;;;;;;21.52;15.57;;;26.90;99.90;;;;;;5050551;28;20173;-52
2022/08/16 11:59:53;;;;;;;21.88;14.98;;;27.10;99.90;;;;;;5050657;28;20173;-52
2022/08/16 12:02:19;;;;;;;21.33;14.90;;;27.00;99.90;;;;;;5050902;28;20608;-52
2022/08/16 12:04:45;;;;;;;17.73;12.38;;;26.70;99.90;;;;;;5050437;28;20178;-51
2022/08/16 12:07:11;;;;;;;19.58;12.10;;;26.60;99.90;;;;;;5050437;28;20205;-51
2022/08/16 12:09:37;;;;;;;14.00;10.02;;;26.20;99.90;;;;;;5050380;28;20222;-51
2022/08/16 12:12:03;;;;;;;12.02;8.85;;;26.10;99.90;;;;;;5054283;28;20168;-51
2022/08/16 12:14:31;;;;;;;13.30;8.40;;;26.20;99.90;;;;;;5054208;28;20176;-52
2022/08/16 12:16:59;;;;;;;14.40;8.73;;;26.20;99.90;;;;;;5054276;28;20215;-52
2022/08/16 12:19:25;;;;;;;14.20;9.70;;;26.10;99.90;;;;;;5054220;28;20173;-63
2022/08/16 12:21:50;;;;;;;17.95;13.80;;;25.90;99.90;;;;;;5054156;28;20169;-50
2022/08/16 12:24:16;;;;;;;21.58;14.13;;;25.70;99.90;;;;;;5054133;28;20283;-51
2022/08/16 12:26:42;;;;;;;24.38;16.80;;;25.60;99.90;;;;;;5053738;28;20253;-50
2022/08/16 12:29:09;;;;;;;20.85;15.65;;;25.70;99.90;;;;;;5053470;28;20641;-51